createdAt,value
2023-02-09T00:09:57.361Z,-3.39
2023-02-09T00:25:07.297Z,1.58
2023-02-09T00:40:17.204Z,2.99
2023-02-09T00:55:26.647Z,3.56
2023-02-09T01:10:36.172Z,3.73
2023-02-09T01:25:45.333Z,3.66
2023-02-09T01:40:55.049Z,3.63
2023-02-09T01:56:06.422Z,3.62
2023-02-09T02:11:16.636Z,3.46
2023-02-09T02:26:39.412Z,3.42
2023-02-09T02:42:08.425Z,3.16
2023-02-09T02:57:19.007Z,3.03
2023-02-09T03:12:29.725Z,3.03
2023-02-09T03:27:39.458Z,3.15
2023-02-09T03:42:48.076Z,3.20
2023-02-09T03:57:57.236Z,3.12
2023-02-09T04:13:06.826Z,2.65
2023-02-09T04:28:16.422Z,2.48
2023-02-09T04:43:25.898Z,2.20
2023-02-09T04:58:52.147Z,2.36
2023-02-09T05:14:01.964Z,2.54
2023-02-09T05:29:10.535Z,2.36
2023-02-09T05:44:19.762Z,2.36
2023-02-09T05:59:28.707Z,2.39
2023-02-09T06:14:38.679Z,2.55
2023-02-09T06:29:48.912Z,1.71
2023-02-09T06:44:59.869Z,1.78
2023-02-09T07:00:10.721Z,2.06
2023-02-09T07:15:19.474Z,2.21
2023-02-09T07:30:28.293Z,2.64
2023-02-09T07:45:37.102Z,3.27
2023-02-09T08:00:47.326Z,3.64
2023-02-09T08:15:57.762Z,4.17
2023-02-09T08:31:07.381Z,4.65
2023-02-09T08:46:17.187Z,4.89
2023-02-09T09:01:26.162Z,1.08
2023-02-09T09:16:35.680Z,-1.17
2023-02-09T09:31:45.429Z,-1.51
2023-02-09T09:46:55.838Z,-1.12
2023-02-09T10:02:14.245Z,-0.55
2023-02-09T10:17:23.822Z,0.12
2023-02-09T10:32:39.746Z,1.11
2023-02-09T10:47:50.807Z,1.80
2023-02-09T11:03:01.999Z,2.17
2023-02-09T11:18:13.242Z,2.60
2023-02-09T11:33:23.781Z,3.07
2023-02-09T11:48:32.940Z,3.37
2023-02-09T12:03:42.363Z,3.81
2023-02-09T12:18:51.234Z,4.23
2023-02-09T12:34:10.990Z,4.66
2023-02-09T12:49:23.641Z,5.14
2023-02-09T13:04:33.474Z,5.31
2023-02-09T13:19:53.083Z,6.36
2023-02-09T13:35:04.260Z,7.24
2023-02-09T13:50:16.149Z,7.32
2023-02-09T14:05:28.673Z,8.36
2023-02-09T14:20:37.928Z,8.95
2023-02-09T14:35:47.545Z,9.09
2023-02-09T14:50:57.561Z,9.16
2023-02-09T15:06:06.769Z,8.86
2023-02-09T15:21:16.277Z,8.83
2023-02-09T15:36:25.275Z,8.18
2023-02-09T15:51:34.598Z,6.86
2023-02-09T16:06:44.009Z,5.70
2023-02-09T16:21:53.265Z,4.73
2023-02-09T16:37:02.471Z,3.48
2023-02-09T16:52:14.731Z,2.56
2023-02-09T17:07:24.017Z,1.99
2023-02-09T17:22:33.322Z,1.56
2023-02-09T17:37:42.631Z,1.12
2023-02-09T17:52:51.551Z,0.54
2023-02-09T18:08:00.727Z,0.35
2023-02-09T18:23:11.953Z,0.16
2023-02-09T18:38:23.817Z,-0.08
2023-02-09T18:53:35.193Z,-0.39
2023-02-09T19:08:44.257Z,-0.50
2023-02-09T19:23:55.522Z,-0.63
2023-02-09T19:39:08.170Z,-0.68
2023-02-09T19:54:21.261Z,-0.61
2023-02-09T20:09:40.409Z,-0.58
2023-02-09T20:24:59.554Z,-0.57
2023-02-09T20:40:19.843Z,-0.51
2023-02-09T20:55:36.665Z,-0.52
2023-02-09T21:10:58.517Z,-0.53
2023-02-09T21:26:12.757Z,-0.53
2023-02-09T21:41:42.498Z,-0.54
2023-02-09T21:56:56.638Z,-0.47
2023-02-09T22:12:12.233Z,-0.21
2023-02-09T22:27:23.692Z,1.90
2023-02-09T22:42:36.561Z,0.43
2023-02-09T22:57:47.015Z,0.35
2023-02-09T23:12:56.365Z,0.46
2023-02-09T23:28:05.937Z,0.44
2023-02-09T23:43:14.640Z,0.39
2023-02-09T23:58:23.920Z,0.28
